createdAt,value
2022-10-02T00:04:27.036Z,11.60
2022-10-02T00:09:40.058Z,11.60
2022-10-02T00:14:46.256Z,11.57
2022-10-02T00:19:54.155Z,11.54
2022-10-02T00:25:01.522Z,11.51
2022-10-02T00:30:10.257Z,11.48
2022-10-02T00:35:43.396Z,11.48
2022-10-02T00:41:16.721Z,11.44
2022-10-02T00:46:35.342Z,11.39
2022-10-02T00:51:56.527Z,11.37
2022-10-02T00:57:11.355Z,11.36
2022-10-02T01:02:50.274Z,11.38
2022-10-02T01:07:55.691Z,11.40
2022-10-02T01:12:59.299Z,11.39
2022-10-02T01:18:04.237Z,11.35
2022-10-02T01:23:18.861Z,11.32
2022-10-02T01:28:23.180Z,11.33
2022-10-02T01:33:27.059Z,11.34
2022-10-02T01:38:31.155Z,11.36
2022-10-02T01:43:38.769Z,11.37
2022-10-02T01:48:52.975Z,11.33
2022-10-02T01:54:04.981Z,11.32
2022-10-02T01:59:20.061Z,11.32
2022-10-02T02:04:27.706Z,11.31
2022-10-02T02:09:41.246Z,11.29
2022-10-02T02:14:51.687Z,11.26
2022-10-02T02:20:01.988Z,11.23
2022-10-02T02:25:12.743Z,11.26
2022-10-02T02:30:17.664Z,11.31
2022-10-02T02:35:26.366Z,11.33
2022-10-02T02:40:33.136Z,11.34
2022-10-02T02:45:42.575Z,11.33
2022-10-02T02:50:50.660Z,11.30
2022-10-02T02:55:58.889Z,11.32
2022-10-02T03:01:02.695Z,11.32
2022-10-02T03:06:26.086Z,11.32
2022-10-02T03:11:41.676Z,11.33
2022-10-02T03:16:52.396Z,11.31
2022-10-02T03:22:04.208Z,11.28
2022-10-02T03:27:12.667Z,11.26
2022-10-02T03:32:18.535Z,11.26
2022-10-02T03:37:23.596Z,11.28
2022-10-02T03:42:31.376Z,11.29
2022-10-02T03:47:35.405Z,11.30
2022-10-02T03:52:39.272Z,11.30
2022-10-02T03:57:46.290Z,11.27
2022-10-02T04:02:55.241Z,11.23
2022-10-02T04:08:05.316Z,11.22
2022-10-02T04:13:14.449Z,11.20
2022-10-02T04:18:24.930Z,11.19
2022-10-02T04:23:33.756Z,11.14
2022-10-02T04:28:42.438Z,11.07
2022-10-02T04:33:46.208Z,11.00
2022-10-02T04:39:10.859Z,10.96
2022-10-02T04:44:27.005Z,10.94
2022-10-02T04:50:07.564Z,10.95
2022-10-02T04:55:30.856Z,10.96
2022-10-02T05:00:43.940Z,10.95
2022-10-02T05:06:03.392Z,10.92
2022-10-02T05:11:21.855Z,10.89
2022-10-02T05:16:44.746Z,10.90
2022-10-02T05:22:01.630Z,10.90
2022-10-02T05:27:22.107Z,10.89
2022-10-02T05:32:49.557Z,10.86
2022-10-02T05:38:07.654Z,10.87
2022-10-02T05:43:13.773Z,10.92
2022-10-02T05:48:23.308Z,11.00
2022-10-02T05:53:35.148Z,11.12
2022-10-02T05:58:47.344Z,11.31
2022-10-02T06:04:02.113Z,11.51
2022-10-02T06:09:20.634Z,11.70
2022-10-02T06:14:34.280Z,11.94
2022-10-02T06:19:42.981Z,12.19
2022-10-02T06:24:50.535Z,12.43
2022-10-02T06:30:01.820Z,12.53
2022-10-02T06:35:11.725Z,12.50
2022-10-02T06:40:50.758Z,12.50
2022-10-02T06:46:03.039Z,12.52
2022-10-02T06:51:17.450Z,12.53
2022-10-02T06:56:36.877Z,12.77
2022-10-02T07:01:57.406Z,12.97
2022-10-02T07:07:27.902Z,13.06
2022-10-02T07:12:57.541Z,13.08
2022-10-02T07:18:17.024Z,13.02
2022-10-02T07:23:43.670Z,12.93
2022-10-02T07:28:56.023Z,12.80
2022-10-02T07:34:14.783Z,12.68
2022-10-02T07:39:32.668Z,12.61
2022-10-02T07:45:07.622Z,12.55
2022-10-02T07:50:15.304Z,12.50
2022-10-02T07:55:22.634Z,12.47
2022-10-02T08:00:29.978Z,12.51
2022-10-02T08:05:39.615Z,12.58
2022-10-02T08:10:49.180Z,12.61
2022-10-02T08:15:56.678Z,12.64
2022-10-02T08:21:01.998Z,12.61
2022-10-02T08:26:12.706Z,12.59
2022-10-02T08:31:16.835Z,12.60
2022-10-02T08:36:53.573Z,12.59
2022-10-02T08:42:37.692Z,12.60
2022-10-02T08:48:23.003Z,12.74
2022-10-02T08:53:57.124Z,13.16
2022-10-02T08:59:36.367Z,13.68
2022-10-02T09:05:22.638Z,13.90
2022-10-02T09:10:52.172Z,13.73
2022-10-02T09:16:09.911Z,13.52
2022-10-02T09:21:19.348Z,13.37
2022-10-02T09:26:41.765Z,13.28
2022-10-02T09:32:34.126Z,13.20
2022-10-02T09:38:15.585Z,13.15
2022-10-02T09:44:01.003Z,13.26
2022-10-02T09:49:48.409Z,13.43
2022-10-02T09:55:26.109Z,13.46
2022-10-02T10:00:58.058Z,13.38
2022-10-02T10:06:27.625Z,13.29
2022-10-02T10:12:02.270Z,13.23
2022-10-02T10:17:43.985Z,13.19
2022-10-02T10:23:14.059Z,13.22
2022-10-02T10:29:13.323Z,13.34
2022-10-02T10:34:45.607Z,13.44
2022-10-02T10:40:24.493Z,13.56
2022-10-02T10:45:42.282Z,13.67
2022-10-02T10:50:59.922Z,13.76
2022-10-02T10:56:36.330Z,13.83
2022-10-02T11:01:51.142Z,13.86
2022-10-02T11:07:20.612Z,13.99
2022-10-02T11:12:44.583Z,14.25
2022-10-02T11:18:04.762Z,14.56
2022-10-02T11:23:43.381Z,14.90
2022-10-02T11:29:00.021Z,15.10
2022-10-02T11:34:42.213Z,15.17
2022-10-02T11:40:21.973Z,15.34
2022-10-02T11:45:56.082Z,15.46
2022-10-02T11:51:24.747Z,15.50
2022-10-02T11:57:00.153Z,15.49
2022-10-02T12:02:16.171Z,15.45
2022-10-02T12:07:35.868Z,15.50
2022-10-02T12:12:55.277Z,15.48
2022-10-02T12:18:21.483Z,15.30
2022-10-02T12:23:57.835Z,15.20
2022-10-02T12:29:10.262Z,15.09
2022-10-02T12:34:32.657Z,15.03
2022-10-02T12:39:47.557Z,15.05
2022-10-02T12:45:21.259Z,15.18
2022-10-02T12:50:47.062Z,15.31
2022-10-02T12:56:15.981Z,15.39
2022-10-02T13:01:37.080Z,15.38
2022-10-02T13:07:19.170Z,15.34
2022-10-02T13:12:40.504Z,15.25
2022-10-02T13:17:51.150Z,15.20
2022-10-02T13:23:06.104Z,15.24
2022-10-02T13:28:30.841Z,15.32
2022-10-02T13:34:06.575Z,15.39
2022-10-02T13:39:33.165Z,15.44
2022-10-02T13:44:41.939Z,15.39
2022-10-02T13:50:06.074Z,15.32
2022-10-02T13:55:22.799Z,15.28
2022-10-02T14:00:53.848Z,15.34
2022-10-02T14:06:05.429Z,15.38
2022-10-02T14:11:23.741Z,15.38
2022-10-02T14:16:42.547Z,15.34
2022-10-02T14:21:56.423Z,15.28
2022-10-02T14:27:09.087Z,15.23
2022-10-02T14:32:46.154Z,15.15
2022-10-02T14:38:25.964Z,15.11
2022-10-02T14:43:51.339Z,15.08
2022-10-02T14:49:13.264Z,15.04
2022-10-02T14:54:46.292Z,15.00
2022-10-02T15:00:18.799Z,14.88
2022-10-02T15:05:38.131Z,14.66
2022-10-02T15:10:44.741Z,14.36
2022-10-02T15:16:17.113Z,14.02
2022-10-02T15:21:41.690Z,13.69
2022-10-02T15:26:54.961Z,13.44
2022-10-02T15:32:28.545Z,13.16
2022-10-02T15:37:45.040Z,12.77
2022-10-02T15:43:32.727Z,12.44
2022-10-02T15:49:24.554Z,12.14
2022-10-02T15:54:48.687Z,11.95
2022-10-02T16:00:02.761Z,11.84
2022-10-02T16:05:28.893Z,11.73
2022-10-02T16:10:49.133Z,11.67
2022-10-02T16:15:59.774Z,11.63
2022-10-02T16:21:25.713Z,11.53
2022-10-02T16:27:03.913Z,11.44
2022-10-02T16:32:19.872Z,11.37
2022-10-02T16:37:28.943Z,11.33
2022-10-02T16:42:49.409Z,11.28
2022-10-02T16:48:02.201Z,11.20
2022-10-02T16:53:14.868Z,11.14
2022-10-02T16:58:32.209Z,11.12
2022-10-02T17:03:44.293Z,11.07
2022-10-02T17:09:06.370Z,10.98
2022-10-02T17:14:18.294Z,10.88
2022-10-02T17:19:26.051Z,10.82
2022-10-02T17:24:39.587Z,10.79
2022-10-02T17:29:54.311Z,10.70
2022-10-02T17:34:59.516Z,10.59
2022-10-02T17:40:14.001Z,10.53
2022-10-02T17:45:32.057Z,10.48
2022-10-02T17:50:50.802Z,10.47
2022-10-02T17:56:30.294Z,10.44
2022-10-02T18:01:43.691Z,10.35
2022-10-02T18:06:59.515Z,10.24
2022-10-02T18:12:30.189Z,10.14
2022-10-02T18:17:47.534Z,10.08
2022-10-02T18:23:07.236Z,10.05
2022-10-02T18:28:26.472Z,9.99
2022-10-02T18:34:06.390Z,9.89
2022-10-02T18:39:25.550Z,9.81
2022-10-02T18:44:44.472Z,9.77
2022-10-02T18:50:03.128Z,9.76
2022-10-02T18:55:34.031Z,9.71
2022-10-02T19:01:08.597Z,9.65
2022-10-02T19:06:19.494Z,9.60
2022-10-02T19:11:29.354Z,9.57
2022-10-02T19:16:35.379Z,9.52
2022-10-02T19:21:42.311Z,9.44
2022-10-02T19:26:51.394Z,9.41
2022-10-02T19:31:59.232Z,9.41
2022-10-02T19:37:05.478Z,9.41
2022-10-02T19:42:18.503Z,9.40
2022-10-02T19:47:27.311Z,9.34
2022-10-02T19:52:43.542Z,9.25
2022-10-02T19:57:49.957Z,9.17
2022-10-02T20:02:59.084Z,9.15
2022-10-02T20:08:11.643Z,9.16
2022-10-02T20:13:23.218Z,9.16
2022-10-02T20:18:29.554Z,9.12
2022-10-02T20:23:39.398Z,9.13
2022-10-02T20:28:48.494Z,9.11
2022-10-02T20:33:57.917Z,9.12
2022-10-02T20:39:05.574Z,9.13
2022-10-02T20:44:12.772Z,9.09
2022-10-02T20:49:40.089Z,9.03
2022-10-02T20:54:58.349Z,9.00
2022-10-02T21:00:09.228Z,8.95
2022-10-02T21:05:35.936Z,8.89
2022-10-02T21:11:15.495Z,8.77
2022-10-02T21:16:57.608Z,8.71
2022-10-02T21:22:36.148Z,8.69
2022-10-02T21:28:14.168Z,8.70
2022-10-02T21:33:22.530Z,8.70
2022-10-02T21:39:04.022Z,8.68
2022-10-02T21:44:41.480Z,8.66
2022-10-02T21:50:22.442Z,8.64
2022-10-02T21:55:57.921Z,8.63
2022-10-02T22:01:29.252Z,8.59
2022-10-02T22:06:44.596Z,8.55
2022-10-02T22:12:01.530Z,8.52
2022-10-02T22:17:16.597Z,8.50
2022-10-02T22:22:35.557Z,8.52
2022-10-02T22:28:16.595Z,8.53
2022-10-02T22:33:37.204Z,8.55
2022-10-02T22:38:45.761Z,8.53
2022-10-02T22:43:54.740Z,8.52
2022-10-02T22:49:12.418Z,8.54
2022-10-02T22:54:25.490Z,8.58
2022-10-02T22:59:32.720Z,8.62
2022-10-02T23:04:46.729Z,8.63
2022-10-02T23:09:58.646Z,8.68
2022-10-02T23:15:24.048Z,8.76
2022-10-02T23:20:35.241Z,8.86
2022-10-02T23:25:48.967Z,8.95
2022-10-02T23:31:05.893Z,9.02
2022-10-02T23:36:24.305Z,9.08
2022-10-02T23:41:39.072Z,9.13
2022-10-02T23:47:00.997Z,9.20
2022-10-02T23:52:31.551Z,9.30
2022-10-02T23:57:51.367Z,9.37
